This is the latest recevied weather packets stored in our database for station/object NE1CU. If no packets are shown the sender has not sent any weather packets the latest 1 day(s).
| Time | Temp. | Humidity | Pressure | Rain* | Wind** | Luminosity | Snow |
|---|---|---|---|---|---|---|---|
| 1778032612 | 17.22° C | 66% | 1010.6 hPa | 0 mm | - | 0 W/m² | - |
| 1778032309 | 17.22° C | 65% | 1010.5 hPa | 0 mm | - | 0 W/m² | - |
| 1778031702 | 17.22° C | 65% | 1010.5 hPa | 0 mm | - | 0 W/m² | - |
| 1778031097 | 17.22° C | 65% | 1010.3 hPa | 0 mm | - | 0 W/m² | - |
| 1778030793 | 17.22° C | 65% | 1010.4 hPa | 0 mm | - | 0 W/m² | - |
| 1778030490 | 17.22° C | 65% | 1010.3 hPa | 0 mm | - | 0 W/m² | - |
| 1778030188 | 17.22° C | 65% | 1010.2 hPa | 0 mm | - | 0 W/m² | - |
| 1778028976 | 17.22° C | 64% | 1010.1 hPa | 0 mm | - | 0 W/m² | - |
| 1778028369 | 17.22° C | 63% | 1009.9 hPa | 0 mm | - | 0 W/m² | - |
| 1778028066 | 17.78° C | 63% | 1009.8 hPa | 0 mm | - | 0 W/m² | - |
| 1778027763 | 17.78° C | 63% | 1009.7 hPa | 0 mm | - | 0 W/m² | - |
| 1778027459 | 17.22° C | 63% | 1009.8 hPa | 0 mm | - | 0 W/m² | - |
| 1778026851 | 17.22° C | 64% | 1009.7 hPa | 0 mm | - | 0 W/m² | - |
| 1778025034 | 17.78° C | 62% | 1009.2 hPa | 0 mm | - | 4 W/m² | - |
| 1778024731 | 17.78° C | 62% | 1009 hPa | 0 mm | - | 7 W/m² | - |
| 1778019579 | 20° C | 55% | 1008.5 hPa | 0 mm | - | 83 W/m² | - |
| 1778016856 | 21.67° C | 53% | 1008.5 hPa | 0 mm | - | 277 W/m² | - |
| 1778016552 | 21.67° C | 53% | 1008.4 hPa | 0 mm | - | 252 W/m² | - |
| 1778015339 | 21.67° C | 54% | 1008.4 hPa | 0 mm | - | 387 W/m² | - |
| 1778014128 | 22.22° C | 52% | 1008.4 hPa | 0 mm | - | 336 W/m² | - |
| 1778013219 | 22.78° C | 50% | 1008.4 hPa | 0 mm | - | 474 W/m² | - |
| 1778012612 | 23.33° C | 50% | 1008.5 hPa | 0 mm | - | 508 W/m² | - |
| 1778011096 | 22.78° C | 50% | 1008.7 hPa | 0 mm | - | 605 W/m² | - |
| 1778010794 | 23.33° C | 52% | 1008.8 hPa | 0 mm | - | 627 W/m² | - |
| 1778010188 | 23.33° C | 51% | 1008.7 hPa | 0 mm | - | 655 W/m² | - |
* Rain latest hour (hover to see other rain measurements)
** Current wind speed in m/s (hover to see current wind gust speed)